sensor_id;sensor_type;location;lat;lon;timestamp;temperature;humidity
40374;DHT22;26079;45.958;12.492;2023-04-03T00:01:30;9.50;99.90
40374;DHT22;26079;45.958;12.492;2023-04-03T00:03:56;9.40;99.90
40374;DHT22;26079;45.958;12.492;2023-04-03T00:06:23;9.40;99.90
40374;DHT22;26079;45.958;12.492;2023-04-03T00:08:49;9.30;99.90
40374;DHT22;26079;45.958;12.492;2023-04-03T00:11:15;9.30;99.90
40374;DHT22;26079;45.958;12.492;2023-04-03T00:13:41;9.20;99.90
40374;DHT22;26079;45.958;12.492;2023-04-03T00:16:08;9.20;99.90
40374;DHT22;26079;45.958;12.492;2023-04-03T00:18:36;9.20;99.90
40374;DHT22;26079;45.958;12.492;2023-04-03T00:21:02;9.20;99.90
40374;DHT22;26079;45.958;12.492;2023-04-03T00:23:28;9.10;99.90
40374;DHT22;26079;45.958;12.492;2023-04-03T00:25:53;9.10;99.90
40374;DHT22;26079;45.958;12.492;2023-04-03T00:28:19;9.10;99.90
40374;DHT22;26079;45.958;12.492;2023-04-03T00:30:46;9.00;99.90
40374;DHT22;26079;45.958;12.492;2023-04-03T00:33:12;9.00;99.90
40374;DHT22;26079;45.958;12.492;2023-04-03T00:35:38;8.90;99.90
40374;DHT22;26079;45.958;12.492;2023-04-03T00:38:04;8.90;99.90
40374;DHT22;26079;45.958;12.492;2023-04-03T00:40:37;8.80;99.90
40374;DHT22;26079;45.958;12.492;2023-04-03T00:43:15;8.70;99.90
40374;DHT22;26079;45.958;12.492;2023-04-03T00:45:43;8.70;99.90
40374;DHT22;26079;45.958;12.492;2023-04-03T00:48:12;8.60;99.90
40374;DHT22;26079;45.958;12.492;2023-04-03T00:50:41;8.50;99.90
40374;DHT22;26079;45.958;12.492;2023-04-03T00:53:12;8.50;99.90
40374;DHT22;26079;45.958;12.492;2023-04-03T00:55:38;8.50;99.90
40374;DHT22;26079;45.958;12.492;2023-04-03T00:58:06;8.40;99.90
40374;DHT22;26079;45.958;12.492;2023-04-03T01:00:33;8.40;99.90
40374;DHT22;26079;45.958;12.492;2023-04-03T01:02:59;8.40;99.90
40374;DHT22;26079;45.958;12.492;2023-04-03T01:05:26;8.40;99.90
40374;DHT22;26079;45.958;12.492;2023-04-03T01:07:52;8.30;99.90
40374;DHT22;26079;45.958;12.492;2023-04-03T01:10:18;8.10;99.90
40374;DHT22;26079;45.958;12.492;2023-04-03T01:12:47;8.10;99.90
40374;DHT22;26079;45.958;12.492;2023-04-03T01:15:20;8.10;99.90
40374;DHT22;26079;45.958;12.492;2023-04-03T01:17:55;8.20;99.90
40374;DHT22;26079;45.958;12.492;2023-04-03T01:25:48;8.20;99.90
40374;DHT22;26079;45.958;12.492;2023-04-03T01:33:15;8.20;99.90
40374;DHT22;26079;45.958;12.492;2023-04-03T01:35:41;8.20;99.90
40374;DHT22;26079;45.958;12.492;2023-04-03T01:38:07;8.20;99.90
40374;DHT22;26079;45.958;12.492;2023-04-03T01:40:32;8.20;99.90
40374;DHT22;26079;45.958;12.492;2023-04-03T01:42:58;8.20;99.90
40374;DHT22;26079;45.958;12.492;2023-04-03T01:45:24;8.10;99.90
40374;DHT22;26079;45.958;12.492;2023-04-03T01:47:49;8.10;99.90
40374;DHT22;26079;45.958;12.492;2023-04-03T01:50:15;8.00;99.90
40374;DHT22;26079;45.958;12.492;2023-04-03T01:52:41;8.00;99.90
40374;DHT22;26079;45.958;12.492;2023-04-03T01:55:07;8.00;99.90
40374;DHT22;26079;45.958;12.492;2023-04-03T01:57:33;7.90;99.90
40374;DHT22;26079;45.958;12.492;2023-04-03T01:59:58;7.90;99.90
40374;DHT22;26079;45.958;12.492;2023-04-03T02:02:24;7.90;99.90
40374;DHT22;26079;45.958;12.492;2023-04-03T02:04:50;7.90;99.90
40374;DHT22;26079;45.958;12.492;2023-04-03T02:07:15;7.90;99.90
40374;DHT22;26079;45.958;12.492;2023-04-03T02:09:41;7.90;99.90
40374;DHT22;26079;45.958;12.492;2023-04-03T02:12:07;7.80;99.90
40374;DHT22;26079;45.958;12.492;2023-04-03T02:14:32;7.80;99.90
40374;DHT22;26079;45.958;12.492;2023-04-03T02:17:00;7.70;99.90
40374;DHT22;26079;45.958;12.492;2023-04-03T02:19:26;7.70;99.90
40374;DHT22;26079;45.958;12.492;2023-04-03T02:21:52;7.70;99.90
40374;DHT22;26079;45.958;12.492;2023-04-03T02:24:17;7.70;99.90
40374;DHT22;26079;45.958;12.492;2023-04-03T02:26:43;7.70;99.90
40374;DHT22;26079;45.958;12.492;2023-04-03T02:29:09;7.70;99.90
40374;DHT22;26079;45.958;12.492;2023-04-03T02:31:34;7.70;99.90
40374;DHT22;26079;45.958;12.492;2023-04-03T02:34:00;7.60;99.90
40374;DHT22;26079;45.958;12.492;2023-04-03T02:36:26;7.60;99.90
40374;DHT22;26079;45.958;12.492;2023-04-03T02:38:52;7.40;99.90
40374;DHT22;26079;45.958;12.492;2023-04-03T02:41:17;7.30;99.90
40374;DHT22;26079;45.958;12.492;2023-04-03T02:43:43;7.20;99.90
40374;DHT22;26079;45.958;12.492;2023-04-03T02:46:09;7.10;99.90
40374;DHT22;26079;45.958;12.492;2023-04-03T02:48:35;7.10;99.90
40374;DHT22;26079;45.958;12.492;2023-04-03T02:51:00;7.10;99.90
40374;DHT22;26079;45.958;12.492;2023-04-03T02:53:26;7.10;99.90
40374;DHT22;26079;45.958;12.492;2023-04-03T02:55:52;7.10;99.90
40374;DHT22;26079;45.958;12.492;2023-04-03T02:58:17;7.10;99.90
40374;DHT22;26079;45.958;12.492;2023-04-03T03:00:43;7.10;99.90
40374;DHT22;26079;45.958;12.492;2023-04-03T03:03:09;7.10;99.90
40374;DHT22;26079;45.958;12.492;2023-04-03T03:05:35;7.10;99.90
40374;DHT22;26079;45.958;12.492;2023-04-03T03:08:01;7.10;99.90
40374;DHT22;26079;45.958;12.492;2023-04-03T03:10:27;7.00;99.90
40374;DHT22;26079;45.958;12.492;2023-04-03T03:12:52;7.00;99.90
40374;DHT22;26079;45.958;12.492;2023-04-03T03:15:18;7.00;99.90
40374;DHT22;26079;45.958;12.492;2023-04-03T03:17:44;6.90;99.90
40374;DHT22;26079;45.958;12.492;2023-04-03T03:20:11;6.90;99.90
40374;DHT22;26079;45.958;12.492;2023-04-03T03:22:37;6.80;99.90
40374;DHT22;26079;45.958;12.492;2023-04-03T03:25:03;6.80;99.90
40374;DHT22;26079;45.958;12.492;2023-04-03T03:27:29;6.70;99.90
40374;DHT22;26079;45.958;12.492;2023-04-03T03:29:55;6.70;99.90
40374;DHT22;26079;45.958;12.492;2023-04-03T03:32:20;6.70;99.90
40374;DHT22;26079;45.958;12.492;2023-04-03T03:34:46;6.70;99.90
40374;DHT22;26079;45.958;12.492;2023-04-03T03:37:12;6.70;99.90
40374;DHT22;26079;45.958;12.492;2023-04-03T03:39:37;6.70;99.90
40374;DHT22;26079;45.958;12.492;2023-04-03T03:42:03;6.80;99.90
40374;DHT22;26079;45.958;12.492;2023-04-03T03:44:29;6.60;99.90
40374;DHT22;26079;45.958;12.492;2023-04-03T03:46:55;6.60;99.90
40374;DHT22;26079;45.958;12.492;2023-04-03T03:49:21;6.50;99.90
40374;DHT22;26079;45.958;12.492;2023-04-03T03:51:47;6.50;99.90
40374;DHT22;26079;45.958;12.492;2023-04-03T03:54:13;6.50;99.90
40374;DHT22;26079;45.958;12.492;2023-04-03T03:56:39;6.50;99.90
40374;DHT22;26079;45.958;12.492;2023-04-03T03:59:05;6.50;99.90
40374;DHT22;26079;45.958;12.492;2023-04-03T04:01:31;6.50;99.90
40374;DHT22;26079;45.958;12.492;2023-04-03T04:03:57;6.50;99.90
40374;DHT22;26079;45.958;12.492;2023-04-03T04:06:23;6.50;99.90
40374;DHT22;26079;45.958;12.492;2023-04-03T04:08:49;6.40;99.90
40374;DHT22;26079;45.958;12.492;2023-04-03T04:11:15;6.40;99.90
40374;DHT22;26079;45.958;12.492;2023-04-03T04:13:41;6.30;99.90
40374;DHT22;26079;45.958;12.492;2023-04-03T04:16:07;6.30;99.90
40374;DHT22;26079;45.958;12.492;2023-04-03T04:18:33;6.30;99.90
40374;DHT22;26079;45.958;12.492;2023-04-03T04:20:59;6.30;99.90
40374;DHT22;26079;45.958;12.492;2023-04-03T04:23:24;6.30;99.90
40374;DHT22;26079;45.958;12.492;2023-04-03T04:25:50;6.30;99.90
40374;DHT22;26079;45.958;12.492;2023-04-03T04:28:16;6.20;99.90
40374;DHT22;26079;45.958;12.492;2023-04-03T04:30:42;6.20;99.90
40374;DHT22;26079;45.958;12.492;2023-04-03T04:33:08;6.20;99.90
40374;DHT22;26079;45.958;12.492;2023-04-03T04:35:34;6.20;99.90
40374;DHT22;26079;45.958;12.492;2023-04-03T04:38:00;6.10;99.90
40374;DHT22;26079;45.958;12.492;2023-04-03T04:40:27;6.20;99.90
40374;DHT22;26079;45.958;12.492;2023-04-03T04:42:52;6.20;99.90
40374;DHT22;26079;45.958;12.492;2023-04-03T04:45:18;6.20;99.90
40374;DHT22;26079;45.958;12.492;2023-04-03T04:47:44;6.20;99.90
40374;DHT22;26079;45.958;12.492;2023-04-03T04:50:10;6.10;99.90
40374;DHT22;26079;45.958;12.492;2023-04-03T04:52:37;6.10;99.90
40374;DHT22;26079;45.958;12.492;2023-04-03T04:55:03;6.10;99.90
40374;DHT22;26079;45.958;12.492;2023-04-03T04:57:29;6.10;99.90
40374;DHT22;26079;45.958;12.492;2023-04-03T04:59:55;6.10;99.90
40374;DHT22;26079;45.958;12.492;2023-04-03T05:02:20;6.10;99.90
40374;DHT22;26079;45.958;12.492;2023-04-03T05:04:46;6.20;99.90
40374;DHT22;26079;45.958;12.492;2023-04-03T05:07:12;6.20;99.90
40374;DHT22;26079;45.958;12.492;2023-04-03T05:09:38;6.10;99.90
40374;DHT22;26079;45.958;12.492;2023-04-03T05:12:04;6.10;99.90
40374;DHT22;26079;45.958;12.492;2023-04-03T05:14:29;6.10;99.90
40374;DHT22;26079;45.958;12.492;2023-04-03T05:16:55;6.20;99.90
40374;DHT22;26079;45.958;12.492;2023-04-03T05:19:21;6.30;99.90
40374;DHT22;26079;45.958;12.492;2023-04-03T05:21:48;6.40;99.90
40374;DHT22;26079;45.958;12.492;2023-04-03T05:24:16;6.50;99.90
40374;DHT22;26079;45.958;12.492;2023-04-03T05:26:42;6.60;99.90
40374;DHT22;26079;45.958;12.492;2023-04-03T05:29:08;6.80;99.90
40374;DHT22;26079;45.958;12.492;2023-04-03T05:31:34;6.90;99.90
40374;DHT22;26079;45.958;12.492;2023-04-03T05:34:00;7.00;99.90
40374;DHT22;26079;45.958;12.492;2023-04-03T05:36:25;7.10;99.90
40374;DHT22;26079;45.958;12.492;2023-04-03T05:38:52;7.30;99.90
40374;DHT22;26079;45.958;12.492;2023-04-03T05:41:18;7.40;99.90
40374;DHT22;26079;45.958;12.492;2023-04-03T05:43:44;7.60;99.90
40374;DHT22;26079;45.958;12.492;2023-04-03T05:46:11;7.80;99.90
40374;DHT22;26079;45.958;12.492;2023-04-03T05:48:37;7.90;99.90
40374;DHT22;26079;45.958;12.492;2023-04-03T05:51:04;8.20;99.90
40374;DHT22;26079;45.958;12.492;2023-04-03T05:53:33;8.70;99.90
40374;DHT22;26079;45.958;12.492;2023-04-03T05:56:00;9.40;99.90
40374;DHT22;26079;45.958;12.492;2023-04-03T05:58:26;10.50;96.90
40374;DHT22;26079;45.958;12.492;2023-04-03T06:00:51;11.70;93.70
40374;DHT22;26079;45.958;12.492;2023-04-03T06:03:18;13.00;92.10
40374;DHT22;26079;45.958;12.492;2023-04-03T06:05:43;14.10;84.90
40374;DHT22;26079;45.958;12.492;2023-04-03T06:08:09;14.50;84.90
40374;DHT22;26079;45.958;12.492;2023-04-03T06:10:36;14.50;84.90
40374;DHT22;26079;45.958;12.492;2023-04-03T06:13:01;13.80;83.90
40374;DHT22;26079;45.958;12.492;2023-04-03T06:15:27;13.00;86.70
40374;DHT22;26079;45.958;12.492;2023-04-03T06:17:53;12.40;89.20
40374;DHT22;26079;45.958;12.492;2023-04-03T06:20:19;11.80;89.30
40374;DHT22;26079;45.958;12.492;2023-04-03T06:22:45;11.40;91.30
40374;DHT22;26079;45.958;12.492;2023-04-03T06:25:11;11.00;92.50
40374;DHT22;26079;45.958;12.492;2023-04-03T06:27:37;10.60;92.10
40374;DHT22;26079;45.958;12.492;2023-04-03T06:30:04;10.50;92.70
40374;DHT22;26079;45.958;12.492;2023-04-03T06:32:30;10.40;94.00
40374;DHT22;26079;45.958;12.492;2023-04-03T06:34:56;10.40;95.00
40374;DHT22;26079;45.958;12.492;2023-04-03T06:37:23;10.30;95.10
40374;DHT22;26079;45.958;12.492;2023-04-03T06:39:51;10.30;94.20
40374;DHT22;26079;45.958;12.492;2023-04-03T06:42:17;10.30;94.10
40374;DHT22;26079;45.958;12.492;2023-04-03T06:44:43;10.50;87.60
40374;DHT22;26079;45.958;12.492;2023-04-03T06:47:16;10.70;88.30
40374;DHT22;26079;45.958;12.492;2023-04-03T06:49:42;10.90;86.10
40374;DHT22;26079;45.958;12.492;2023-04-03T06:52:08;11.00;86.50
40374;DHT22;26079;45.958;12.492;2023-04-03T06:54:35;11.10;85.70
40374;DHT22;26079;45.958;12.492;2023-04-03T06:57:00;11.20;84.50
40374;DHT22;26079;45.958;12.492;2023-04-03T06:59:26;11.30;83.70
40374;DHT22;26079;45.958;12.492;2023-04-03T07:01:52;11.30;83.30
40374;DHT22;26079;45.958;12.492;2023-04-03T07:04:18;11.30;82.10
40374;DHT22;26079;45.958;12.492;2023-04-03T07:06:46;11.30;80.70
40374;DHT22;26079;45.958;12.492;2023-04-03T07:09:13;11.40;80.70
40374;DHT22;26079;45.958;12.492;2023-04-03T07:11:39;11.40;79.20
40374;DHT22;26079;45.958;12.492;2023-04-03T07:14:05;11.30;79.20
40374;DHT22;26079;45.958;12.492;2023-04-03T07:16:33;11.30;79.10
40374;DHT22;26079;45.958;12.492;2023-04-03T07:18:59;11.40;79.40
40374;DHT22;26079;45.958;12.492;2023-04-03T07:21:25;11.40;80.20
40374;DHT22;26079;45.958;12.492;2023-04-03T07:23:51;11.50;80.30
40374;DHT22;26079;45.958;12.492;2023-04-03T07:26:17;11.50;79.70
40374;DHT22;26079;45.958;12.492;2023-04-03T07:28:43;11.60;79.10
40374;DHT22;26079;45.958;12.492;2023-04-03T07:31:13;11.50;77.40
40374;DHT22;26079;45.958;12.492;2023-04-03T07:33:39;11.60;78.60
40374;DHT22;26079;45.958;12.492;2023-04-03T07:36:07;11.60;78.20
40374;DHT22;26079;45.958;12.492;2023-04-03T07:38:34;11.70;76.90
40374;DHT22;26079;45.958;12.492;2023-04-03T07:40:59;11.60;77.60
40374;DHT22;26079;45.958;12.492;2023-04-03T07:43:25;11.70;78.90
40374;DHT22;26079;45.958;12.492;2023-04-03T07:45:51;11.70;77.50
40374;DHT22;26079;45.958;12.492;2023-04-03T07:48:25;11.90;77.50
40374;DHT22;26079;45.958;12.492;2023-04-03T07:50:51;11.90;76.20
40374;DHT22;26079;45.958;12.492;2023-04-03T07:53:17;11.90;77.20
40374;DHT22;26079;45.958;12.492;2023-04-03T07:55:46;11.80;77.10
40374;DHT22;26079;45.958;12.492;2023-04-03T07:58:15;11.80;77.80
40374;DHT22;26079;45.958;12.492;2023-04-03T08:00:41;11.90;76.80
40374;DHT22;26079;45.958;12.492;2023-04-03T08:03:08;11.90;77.70
40374;DHT22;26079;45.958;12.492;2023-04-03T08:05:40;12.00;77.80
40374;DHT22;26079;45.958;12.492;2023-04-03T08:08:07;12.10;78.30
40374;DHT22;26079;45.958;12.492;2023-04-03T08:10:33;12.20;76.80
40374;DHT22;26079;45.958;12.492;2023-04-03T08:13:00;12.20;76.10
40374;DHT22;26079;45.958;12.492;2023-04-03T08:15:26;12.20;75.80
40374;DHT22;26079;45.958;12.492;2023-04-03T08:17:52;12.10;77.10
40374;DHT22;26079;45.958;12.492;2023-04-03T08:20:18;12.10;76.80
40374;DHT22;26079;45.958;12.492;2023-04-03T08:22:44;12.30;76.20
40374;DHT22;26079;45.958;12.492;2023-04-03T08:25:13;12.30;75.70
40374;DHT22;26079;45.958;12.492;2023-04-03T08:27:39;12.40;75.30
40374;DHT22;26079;45.958;12.492;2023-04-03T08:30:05;12.40;75.70
40374;DHT22;26079;45.958;12.492;2023-04-03T08:32:33;12.40;74.60
40374;DHT22;26079;45.958;12.492;2023-04-03T08:34:59;12.40;74.70
40374;DHT22;26079;45.958;12.492;2023-04-03T08:37:25;12.30;73.10
40374;DHT22;26079;45.958;12.492;2023-04-03T08:39:51;12.20;74.60
40374;DHT22;26079;45.958;12.492;2023-04-03T08:50:47;12.60;74.60
40374;DHT22;26079;45.958;12.492;2023-04-03T08:53:16;12.80;74.10
40374;DHT22;26079;45.958;12.492;2023-04-03T08:55:53;12.90;72.80
40374;DHT22;26079;45.958;12.492;2023-04-03T08:58:22;12.90;72.70
40374;DHT22;26079;45.958;12.492;2023-04-03T09:00:59;12.90;71.90
40374;DHT22;26079;45.958;12.492;2023-04-03T09:03:33;12.90;73.50
40374;DHT22;26079;45.958;12.492;2023-04-03T09:06:14;12.80;72.50
40374;DHT22;26079;45.958;12.492;2023-04-03T09:12:13;12.90;74.10
40374;DHT22;26079;45.958;12.492;2023-04-03T09:20:30;12.80;70.80
40374;DHT22;26079;45.958;12.492;2023-04-03T09:22:58;12.80;72.80
40374;DHT22;26079;45.958;12.492;2023-04-03T09:25:36;12.80;71.40
40374;DHT22;26079;45.958;12.492;2023-04-03T09:28:03;12.90;71.00
40374;DHT22;26079;45.958;12.492;2023-04-03T09:30:29;13.00;71.90
40374;DHT22;26079;45.958;12.492;2023-04-03T09:32:56;13.00;72.20
40374;DHT22;26079;45.958;12.492;2023-04-03T09:35:29;13.10;73.40
40374;DHT22;26079;45.958;12.492;2023-04-03T09:40:37;13.50;70.30
40374;DHT22;26079;45.958;12.492;2023-04-03T09:43:24;13.30;70.30
40374;DHT22;26079;45.958;12.492;2023-04-03T09:45:51;13.30;70.60
40374;DHT22;26079;45.958;12.492;2023-04-03T09:48:25;13.40;71.20
40374;DHT22;26079;45.958;12.492;2023-04-03T09:53:42;13.70;71.00
40374;DHT22;26079;45.958;12.492;2023-04-03T09:58:45;13.90;70.20
40374;DHT22;26079;45.958;12.492;2023-04-03T10:06:40;13.90;71.00
40374;DHT22;26079;45.958;12.492;2023-04-03T10:09:31;13.90;69.30
40374;DHT22;26079;45.958;12.492;2023-04-03T10:12:08;13.80;70.00
40374;DHT22;26079;45.958;12.492;2023-04-03T10:14:53;14.00;69.30
40374;DHT22;26079;45.958;12.492;2023-04-03T10:20:00;14.00;68.60
40374;DHT22;26079;45.958;12.492;2023-04-03T10:22:39;14.00;68.10
40374;DHT22;26079;45.958;12.492;2023-04-03T10:25:20;14.00;68.00
40374;DHT22;26079;45.958;12.492;2023-04-03T10:28:09;13.90;67.50
40374;DHT22;26079;45.958;12.492;2023-04-03T10:36:19;14.10;68.20
40374;DHT22;26079;45.958;12.492;2023-04-03T10:44:29;14.20;68.80
40374;DHT22;26079;45.958;12.492;2023-04-03T10:52:17;14.10;68.70
40374;DHT22;26079;45.958;12.492;2023-04-03T10:54:59;14.20;69.30
40374;DHT22;26079;45.958;12.492;2023-04-03T10:57:28;14.30;68.00
40374;DHT22;26079;45.958;12.492;2023-04-03T11:00:04;14.30;68.00
40374;DHT22;26079;45.958;12.492;2023-04-03T11:02:45;14.50;66.70
40374;DHT22;26079;45.958;12.492;2023-04-03T11:05:41;14.40;68.00
40374;DHT22;26079;45.958;12.492;2023-04-03T11:10:52;14.30;65.80
40374;DHT22;26079;45.958;12.492;2023-04-03T11:13:25;14.30;68.60
40374;DHT22;26079;45.958;12.492;2023-04-03T11:15:53;14.40;67.20
40374;DHT22;26079;45.958;12.492;2023-04-03T11:18:37;14.40;67.30
40374;DHT22;26079;45.958;12.492;2023-04-03T11:21:20;14.50;68.00
40374;DHT22;26079;45.958;12.492;2023-04-03T11:23:47;14.50;66.40
40374;DHT22;26079;45.958;12.492;2023-04-03T11:26:19;14.30;65.10
40374;DHT22;26079;45.958;12.492;2023-04-03T11:28:46;14.40;67.40
40374;DHT22;26079;45.958;12.492;2023-04-03T11:34:25;14.50;66.00
40374;DHT22;26079;45.958;12.492;2023-04-03T11:36:58;14.60;65.40
40374;DHT22;26079;45.958;12.492;2023-04-03T11:39:32;14.60;64.20
40374;DHT22;26079;45.958;12.492;2023-04-03T11:44:46;14.70;64.40
40374;DHT22;26079;45.958;12.492;2023-04-03T11:50:46;14.80;64.20
40374;DHT22;26079;45.958;12.492;2023-04-03T12:14:04;15.40;63.00
40374;DHT22;26079;45.958;12.492;2023-04-03T12:26:48;15.40;63.30
40374;DHT22;26079;45.958;12.492;2023-04-03T12:32:19;15.30;60.80
40374;DHT22;26079;45.958;12.492;2023-04-03T12:51:21;15.70;61.30
40374;DHT22;26079;45.958;12.492;2023-04-03T12:53:48;15.80;61.70
40374;DHT22;26079;45.958;12.492;2023-04-03T12:56:29;15.70;62.00
40374;DHT22;26079;45.958;12.492;2023-04-03T12:59:22;15.60;59.30
40374;DHT22;26079;45.958;12.492;2023-04-03T13:01:59;15.50;58.70
40374;DHT22;26079;45.958;12.492;2023-04-03T13:04:26;15.40;59.00
40374;DHT22;26079;45.958;12.492;2023-04-03T13:06:52;15.30;57.80
40374;DHT22;26079;45.958;12.492;2023-04-03T13:09:30;15.30;58.60
40374;DHT22;26079;45.958;12.492;2023-04-03T13:12:02;15.30;59.70
40374;DHT22;26079;45.958;12.492;2023-04-03T13:14:29;15.50;58.60
40374;DHT22;26079;45.958;12.492;2023-04-03T13:17:12;15.60;59.50
40374;DHT22;26079;45.958;12.492;2023-04-03T13:19:39;15.40;58.80
40374;DHT22;26079;45.958;12.492;2023-04-03T13:22:23;15.40;58.50
40374;DHT22;26079;45.958;12.492;2023-04-03T13:24:52;15.40;59.10
40374;DHT22;26079;45.958;12.492;2023-04-03T13:27:19;15.50;59.40
40374;DHT22;26079;45.958;12.492;2023-04-03T13:29:50;15.60;59.60
40374;DHT22;26079;45.958;12.492;2023-04-03T13:32:20;15.60;59.20
40374;DHT22;26079;45.958;12.492;2023-04-03T13:34:47;15.80;56.40
40374;DHT22;26079;45.958;12.492;2023-04-03T13:37:26;15.80;56.40
40374;DHT22;26079;45.958;12.492;2023-04-03T13:40:31;15.80;55.40
40374;DHT22;26079;45.958;12.492;2023-04-03T13:43:16;15.80;56.00
40374;DHT22;26079;45.958;12.492;2023-04-03T13:48:27;15.70;56.70
40374;DHT22;26079;45.958;12.492;2023-04-03T13:53:56;15.80;55.00
40374;DHT22;26079;45.958;12.492;2023-04-03T14:04:18;16.00;53.40
40374;DHT22;26079;45.958;12.492;2023-04-03T14:06:45;16.00;53.90
40374;DHT22;26079;45.958;12.492;2023-04-03T14:09:11;16.00;53.90
40374;DHT22;26079;45.958;12.492;2023-04-03T14:11:37;16.20;53.00
40374;DHT22;26079;45.958;12.492;2023-04-03T14:14:11;16.10;54.50
40374;DHT22;26079;45.958;12.492;2023-04-03T14:16:40;16.20;53.80
40374;DHT22;26079;45.958;12.492;2023-04-03T14:19:07;16.20;55.70
40374;DHT22;26079;45.958;12.492;2023-04-03T14:21:33;16.30;54.80
40374;DHT22;26079;45.958;12.492;2023-04-03T14:23:59;16.30;54.90
40374;DHT22;26079;45.958;12.492;2023-04-03T14:26:25;16.30;53.20
40374;DHT22;26079;45.958;12.492;2023-04-03T14:28:54;16.30;53.50
40374;DHT22;26079;45.958;12.492;2023-04-03T14:31:20;16.30;54.90
40374;DHT22;26079;45.958;12.492;2023-04-03T14:33:46;16.30;55.70
40374;DHT22;26079;45.958;12.492;2023-04-03T14:36:15;16.30;54.90
40374;DHT22;26079;45.958;12.492;2023-04-03T14:38:42;16.40;56.00
40374;DHT22;26079;45.958;12.492;2023-04-03T14:41:11;16.30;55.00
40374;DHT22;26079;45.958;12.492;2023-04-03T14:46:33;16.30;56.90
40374;DHT22;26079;45.958;12.492;2023-04-03T14:49:00;16.30;55.00
40374;DHT22;26079;45.958;12.492;2023-04-03T14:51:26;16.30;54.60
40374;DHT22;26079;45.958;12.492;2023-04-03T14:53:52;16.10;53.90
40374;DHT22;26079;45.958;12.492;2023-04-03T14:56:24;16.00;55.00
40374;DHT22;26079;45.958;12.492;2023-04-03T14:58:55;16.10;55.90
40374;DHT22;26079;45.958;12.492;2023-04-03T15:01:21;16.10;56.30
40374;DHT22;26079;45.958;12.492;2023-04-03T15:03:47;16.00;55.60
40374;DHT22;26079;45.958;12.492;2023-04-03T15:06:14;15.80;53.20
40374;DHT22;26079;45.958;12.492;2023-04-03T15:08:40;15.70;54.80
40374;DHT22;26079;45.958;12.492;2023-04-03T15:11:08;15.70;56.30
40374;DHT22;26079;45.958;12.492;2023-04-03T15:13:35;15.80;56.50
40374;DHT22;26079;45.958;12.492;2023-04-03T15:16:05;15.80;54.60
40374;DHT22;26079;45.958;12.492;2023-04-03T15:18:38;15.70;55.90
40374;DHT22;26079;45.958;12.492;2023-04-03T15:21:04;15.60;55.50
40374;DHT22;26079;45.958;12.492;2023-04-03T15:23:30;15.60;56.00
40374;DHT22;26079;45.958;12.492;2023-04-03T15:25:56;15.60;56.10
40374;DHT22;26079;45.958;12.492;2023-04-03T15:28:43;15.50;55.70
40374;DHT22;26079;45.958;12.492;2023-04-03T15:31:09;15.50;55.10
40374;DHT22;26079;45.958;12.492;2023-04-03T15:33:35;15.30;53.90
40374;DHT22;26079;45.958;12.492;2023-04-03T15:36:02;15.20;56.10
40374;DHT22;26079;45.958;12.492;2023-04-03T15:38:28;15.30;55.80
40374;DHT22;26079;45.958;12.492;2023-04-03T15:40:54;15.30;56.30
40374;DHT22;26079;45.958;12.492;2023-04-03T15:43:23;15.30;56.20
40374;DHT22;26079;45.958;12.492;2023-04-03T15:45:49;15.30;59.10
40374;DHT22;26079;45.958;12.492;2023-04-03T15:48:16;15.40;56.30
40374;DHT22;26079;45.958;12.492;2023-04-03T15:50:42;15.30;56.40
40374;DHT22;26079;45.958;12.492;2023-04-03T15:53:17;15.20;55.60
40374;DHT22;26079;45.958;12.492;2023-04-03T15:55:43;15.20;56.70
40374;DHT22;26079;45.958;12.492;2023-04-03T15:58:09;15.10;54.80
40374;DHT22;26079;45.958;12.492;2023-04-03T16:00:36;15.00;55.20
40374;DHT22;26079;45.958;12.492;2023-04-03T16:03:10;15.00;55.60
40374;DHT22;26079;45.958;12.492;2023-04-03T16:05:39;14.90;55.80
40374;DHT22;26079;45.958;12.492;2023-04-03T16:08:06;14.80;56.00
40374;DHT22;26079;45.958;12.492;2023-04-03T16:10:36;14.80;56.40
40374;DHT22;26079;45.958;12.492;2023-04-03T16:13:03;14.70;56.30
40374;DHT22;26079;45.958;12.492;2023-04-03T16:15:30;14.70;56.00
40374;DHT22;26079;45.958;12.492;2023-04-03T16:17:57;14.70;55.40
40374;DHT22;26079;45.958;12.492;2023-04-03T16:20:24;14.60;55.50
40374;DHT22;26079;45.958;12.492;2023-04-03T16:22:50;14.60;55.40
40374;DHT22;26079;45.958;12.492;2023-04-03T16:25:24;14.60;56.60
40374;DHT22;26079;45.958;12.492;2023-04-03T16:27:50;14.60;56.90
40374;DHT22;26079;45.958;12.492;2023-04-03T16:30:16;14.50;56.60
40374;DHT22;26079;45.958;12.492;2023-04-03T16:32:42;14.50;57.10
40374;DHT22;26079;45.958;12.492;2023-04-03T16:35:09;14.40;58.30
40374;DHT22;26079;45.958;12.492;2023-04-03T16:37:36;14.30;57.20
40374;DHT22;26079;45.958;12.492;2023-04-03T16:40:03;14.20;56.60
40374;DHT22;26079;45.958;12.492;2023-04-03T16:42:30;14.10;57.30
40374;DHT22;26079;45.958;12.492;2023-04-03T16:44:56;14.00;57.60
40374;DHT22;26079;45.958;12.492;2023-04-03T16:47:21;13.90;57.50
40374;DHT22;26079;45.958;12.492;2023-04-03T16:49:47;13.80;58.00
40374;DHT22;26079;45.958;12.492;2023-04-03T16:52:13;13.70;58.00
40374;DHT22;26079;45.958;12.492;2023-04-03T16:54:40;13.60;58.50
40374;DHT22;26079;45.958;12.492;2023-04-03T16:57:06;13.60;59.90
40374;DHT22;26079;45.958;12.492;2023-04-03T16:59:31;13.50;59.10
40374;DHT22;26079;45.958;12.492;2023-04-03T17:01:57;13.50;59.70
40374;DHT22;26079;45.958;12.492;2023-04-03T17:04:22;13.50;60.00
40374;DHT22;26079;45.958;12.492;2023-04-03T17:06:48;13.30;60.80
40374;DHT22;26079;45.958;12.492;2023-04-03T17:09:14;13.20;59.70
40374;DHT22;26079;45.958;12.492;2023-04-03T17:11:40;13.00;60.40
40374;DHT22;26079;45.958;12.492;2023-04-03T17:14:06;12.90;61.20
40374;DHT22;26079;45.958;12.492;2023-04-03T17:16:34;12.80;62.00
40374;DHT22;26079;45.958;12.492;2023-04-03T17:19:00;12.70;63.40
40374;DHT22;26079;45.958;12.492;2023-04-03T17:21:27;12.60;63.50
40374;DHT22;26079;45.958;12.492;2023-04-03T17:23:58;12.50;62.90
40374;DHT22;26079;45.958;12.492;2023-04-03T17:26:25;12.40;63.70
40374;DHT22;26079;45.958;12.492;2023-04-03T17:28:52;12.30;64.20
40374;DHT22;26079;45.958;12.492;2023-04-03T17:31:18;12.20;64.80
40374;DHT22;26079;45.958;12.492;2023-04-03T17:33:43;12.10;65.00
40374;DHT22;26079;45.958;12.492;2023-04-03T17:36:09;12.10;64.60
40374;DHT22;26079;45.958;12.492;2023-04-03T17:38:35;12.00;64.40
40374;DHT22;26079;45.958;12.492;2023-04-03T17:41:04;12.00;63.30
40374;DHT22;26079;45.958;12.492;2023-04-03T17:43:30;12.00;63.10
40374;DHT22;26079;45.958;12.492;2023-04-03T17:46:04;11.90;63.70
40374;DHT22;26079;45.958;12.492;2023-04-03T17:48:31;11.90;64.80